Timeline UpdatesTrip UpdatesNews PostsPvt PostsTravel TipsAdmin PostsConv PostsFollowed PostsChat RequestsBlog PostsPNR Posts

Disclaimer
Search
 
 
Sat Apr 19, 2014 22:39:52 ISTHomeTrainsΣChainsAtlasPNRForumGalleryNewsFAQTripsMembersLoginFeedback
No Recent News for this Train
Other Trains in the News **new
Latest...
.
Thu Nov 21, 2013 (01:59PM)
⇐ Return Journey: Train# 13351

13352/Alappuzha-Dhanbad Express

Mar 06 2014 (2:56PM)
Change Departure Station:
Change Arrival Station:
Post a Train Travel TipPost a Train Travel Tip **new
Post a Comment/Question/Picture/VideoPost a Comment/Question/Picture/Video
Pantry/Catering
✓ Pantry Car Avbl
✓ Catering Avbl
Average!! Pantry goes with Dhanbad rake; Additional:the food was well...
Read more...
below average, not only the snacks and tea/coffee but also the meals were of poor quality.
Loco/Rake Reversals
VSKP/Visakhapatnam Junction (8); MAS/Chennai Central (12); SRR/Shoranur Junction (7);
RSA - Rake Sharing
Rake/Coach Composition
Loco-SLR-GS-ST6-ST5-ST4-ST3-ST2-ST1-A2-B1-A1-B2-PC-S7-S6-S5-S4-S3-S2-S1-GS-SLR ( Till MAS); Reversal at MAS;*******************; S2&S4, ST1 & ST2 are dereserved coaches from ALLP - PER
Loco
Official Loco:- ALLP - MAS:- WAP-4/WAM-1 MAS - VSKP:- WAM-4/WAP-1 VSKP - ROU:-...
Read more...
WDM-3A/WDG-3A ROU - DHN :- WAM-4
News    PNR    Forum    Time-Table    Availability    Fare Chart    Map    Arr/Dep History    Trips    Gallery    ΣChains    X/O    Timeline    
Travel Time: 55h 15m    94 halts    Distance: 2533 km    Avg Speed: 45 km/hr
Type: Mail/Express
Zone: ECR/East Central
Departs @ 06:00 (Avg 2m late)
Platform# 1
SMTWTFS
Alappuzha/ALLP 
Arrives @ 13:15 +2 nights (Avg 11m late)
Platform# 5
SMTWTFS
Dhanbad Junction/DHN 

94 halts. 419 intermediate Stations between Alappuzha and Dhanbad Junction

Show ALL intermediate Stations  Show Old Time-Table

#CodeStation NameX/OArrivesAvgDepartsAvgHaltPFDay#KmSpeedElevZoneAddress
1ALLP»Alappuzha (3)»  -06:00+2110.0668mSRPh:0477-2253965, Kerala
2MAKMMararikkulam (1)  06:12+406:13+51m1113.16612mSRMararikulam, Kerala
3SRTLCherthala (3)X  06:23+1006:25+122m1124.1667mSRPh: 0478- 2812500, Kerala
4TUVRTuravur (2)X  06:34+1506:35+161m1134.1405mSRThuravoor, Kerala
5ERSErnakulam Junction (South) (6)  07:10+707:15+85m1157.5533mSRErnakulam 682016, Kerala
6AWYAluva (3)X  07:37+807:40+73m3176.95712mSRPh: 0484-2624141, Kerala
7TCRThrissur (4)X  08:37+108:40+33m21131.5366mSRThrissur Tel: 0487 2423150, Kerala
8SRRShoranur Junction (7)09:35-209:45+810m--1164.55326mSRShoranur ph.no 0466-2222913, Kerala
9PGTPalakkad Junction (4)X  10:35+110:40+35m--1208.84584mSRPalghat Tel: 0491 2555231, Kerala
10CBECoimbatore Main Junction (6)  11:55+312:00+85m--1264.571411mSRCoimbatore 641001, Tamil Nadu
11TUPTiruppur (2)X  12:43+1312:45+152m21315.146305mSRTiruppur. Ph:0421-2200450, Tamil Nadu
12EDErode Junction (4)  13:50+314:00+1010m11365.067175mSRErode ph.no: 0424-2256111, Tamil Nadu
13SASalem Junction (6)X  14:55+715:00+95m--1426.878283mSRSalem, Tamil Nadu
14BQIBommidi  15:33+1615:35+162m--1469.8850mSRBommidi ph.no. 04346-244441, Tamil Nadu
15SLYSamalpatti  16:08+1816:10+182m--1516.350381mSRSamalpatti ph.no. 04341-245601, Tamil Nadu
16TPTTirupattur Junction (2)  16:38+916:40+102m--1539.618392mSRTirupattur ph.no. 04179-220062, Tamil Nadu
17JTJJolarpettai Junction (5)XO  17:05+517:10+85m41547.066405mSRJolarpettai jtn. Ph No.04179-241221, Tamil Nadu
18VNVaniyambadiX  17:24+1217:25+121m21562.567357mSRVaniyambadi, Tamil Nadu
19GYMGudiyattam (3)  18:04+418:05+71m21606.364269mSRVellore, Tamil Nadu
20KPDKatpadi Junction (5)X  18:28+818:30+112m21630.852213mSRVellore 632007. Phone No: 0416-2642628, Tamil Nadu
21MCNMukundarayapuram (2)X  18:49+1318:50+181m--1647.459198mSRSipcot Ranipet, Tamil Nadu
22AJJArakkonam Junction (8)X  19:35+3019:40+285m--1691.67091mSRArakkonam, Tamil Nadu
23TRLTiruvallur (6)  20:03+4420:05+552m--1718.67250mSRTiruvallur, Tamil Nadu
24PERPerambur (4)XO  20:35+4120:37+402m--1754.837mSRChennai-600011 Phone: 044-25510359, Tamil Nadu
25MASChennai Central (12)22:15+1323:00+1045m101760.3739mSRChennai 600003, Tamil Nadu
26SPESullurupeta (3)  00:08+2900:10+312m12842.7719mSRSullurupeta, Andhra Pradesh
27NYPNayadupeta (3)XO  00:33+3200:35+392m12869.91733mSRNayudupeta, Andhra Pradesh
28GDRGudur Junction (3)X  02:15-102:17+32m22897.69219mSCRGudur, Andhra Pradesh
29NLRNellore (4)  02:42+1302:43+141m22936.17921mSCRNellore, Andhra Pradesh
30BTTRBitragunta (2)  03:09+1803:10+221m12970.45815mSCRBitragunta, Andhra Pradesh
31KVZKavali (4)X  03:27+2303:28+231m32986.99121mSCRKavali, Andhra Pradesh
32SKMSingarayakonda (3)X  03:53+2603:54+261m121024.65326mSCRSingarayakonda, Andhra Pradesh
33OGLOngole (3)X  04:26+2304:27+231m121052.97612mSCROngole ph.no . 08592-280202, Andhra Pradesh
34CJMChinnaganjam (3)X  04:50+2704:51+271m--21081.9819mSCRChinna Ganjam, Andhra Pradesh
35CLXChirala (4)  05:06+3005:07+301m--21102.2758mSCRChirala, Andhra Pradesh
36BPPBapatla (3)  05:19+3205:20+321m--21117.36910mSCRBapatla, Andhra Pradesh
37NDONidubrolu (3)X  05:38+3405:39+341m--21137.8839mSCRNidubrolu, Andhra Pradesh
38TELTenali Junction (5)X  05:55+3405:56+341m421159.92516mSCRTel: 08644-227834, Andhra Pradesh
39BZAVijayawada Junction (10)X  07:10+1507:30+2120m321191.17724mSCRVijayawada 520001, Andhra Pradesh
40EEEluru (3)  08:16+4108:17+421m221250.59019mSCREluru Ph.no. 08812 226401., Andhra Pradesh
41TDDTadepalligudem (3)X  08:49+4808:50+491m--21298.34418mSCRTadepalligudem, Andhra Pradesh
42NDDNidadavolu Junction (3)  09:17+4609:18+471m--21318.33620mSCRNidadavolu jtn ph.no. 08813-210325, Andhra Pradesh
43KVRKovvur (3)  09:42+4409:43+461m--21332.62125mSCRWest Godavari, Andhra Pradesh
44GVNGodavari  09:57+4209:58+431m--21337.41524mSCRRajahmundry, Andhra Pradesh
45RJYRajahmundry (3)X  10:10+4310:15+435m321340.47023mSCRRajahmundry ph.no. 0883-2420541, Andhra Pradesh
46DWPDwarapudi (3)X  10:32+5110:33+521m--21360.34520mSCREast Godavari District, Andhra Pradesh
47APTAnaparti (3)  10:38+5310:39+531m--21364.17621mSCREast Godavari District, Andhra Pradesh
48SLOSamalkot Junction (3)X  11:00+5711:01+591m121390.66018mSCRKakinada ph.no.0884-2328824, Andhra Pradesh
49PAPPithapuram (2)  11:13+5911:14+591m--21402.75722mSCREast Godavari District, Andhra Pradesh
50GLPGollaprolu  11:20+1:0011:21+1:011m--21408.48219mSCRGollaprollu, Andhra Pradesh
51ANVAnnavaram (3)X  11:35+1:0611:36+1:061m321427.56727mSCREast Godavari District, Andhra Pradesh
52TUNITuni (2)X  11:51+1:0911:52+1:091m221444.16124mSCRTuni ph.no. 08854-252172, Andhra Pradesh
53NRPNarsipatnam Road (2)  12:14+1:0912:15+1:091m--21466.46718mSCRVisakhapatnam District, Andhra Pradesh
54YLMElamanchili (2)  12:31+1:1012:32+1:111m--21484.25323mSCRVisakhapatnam District, Andhra Pradesh
55AKPAnakapalle (3)X  12:59+3813:00+391m--21507.91230mSCRAnakapalle ph.no . 08924-221698, Andhra Pradesh
56DVDDuvvada (4)X  14:23+1714:25+172m--21523.92046mECoRVishakhapatnam District, Andhra Pradesh
57VSKPVisakhapatnam Junction (8)X15:15+315:35+720m321540.23011mECoRVishakhapatnam 530001, Andhra Pradesh
58SCMSimhachalam (2)  15:51+1015:53+102m--21548.37227mECoRVisakhapatnam, Andhra Pradesh
59KTVKottavalasa Junction (5)X  16:08+1016:10+102m--21566.46658mECoRVizianagaram District, Andhra Pradesh
60VZMVizianagaram Junction (5)X  16:42+1216:47+125m--21601.47263mECoRVizianagaram ph.no 08922-225510, Andhra Pradesh
61VBLBobbili Junction (2)X  17:32+1117:35+113m121655.768137mECoRBobbili, Andhra Pradesh
62PVPParvatipuram (3)  17:56+817:58+92m--21679.625122mECoRParvatipuram, Andhra Pradesh
63PVPTParvatipuram Town  18:02+418:04+42m--21681.259121mECoRParvatipuram, Andhra Pradesh
64RGDARayagada (3)X  18:50+219:05+315m--21726.537229mECoRRayagada ph.no 06856-222407, Odisha
65SPRDSingapuram Road (2)  19:20+219:22+22m--21735.751248mECoRJaykaypur, Odisha
66THVTherubaliX  19:33+1019:35+112m--21745.162270mECoRRayagada, Odisha
67MNGDMunigudaX  20:10+1520:12+152m--21781.171335mECoRMuniguda, Odisha
68AMBAmbodala  20:33+1720:35+172m--21806.165374mECoRState Highway 6, Odisha
69NRLRNorla RoadX  20:58+1421:00+152m--21831.140247mECoRKalahandi, Odisha
70RPRDRupra Road  21:10+1321:12+132m--21837.761233mECoRKalahandi, Odisha
71KSNGKesinga (1)  21:28+1221:30+142m121853.942183mECoRKesinga, Odisha
72TIGTitlagarh Junction  21:50+1122:00+1510m321867.960212mECoRTitlagarh, Odisha
73BUDMBadmal  22:20+1722:22+182m--21887.869209mECoRDumerbahal Rd, Odisha
74BLGRBalangirX  23:00+1923:05+295m--21931.266210mECoRBolangir, Odisha
75BRPLBarpali  23:57+2823:59+342m--21988.368178mECoRBarpali, Odisha
76BRGABargarh RoadX  00:16+3400:21+375m--32007.549185mECoRBargarh, Odisha
77ATSAttabira  00:43+3100:45+332m--32025.621164mECoRBargarh, Odisha
78SBPSambalpur Junction (3)X  01:55+1002:05+1210m--32050.115159mECoRSambalpur, Odisha
79SBPDSambalpur Road  02:11+1002:13+112m--32051.650161mECoRSambalpur, Odisha
80RGLRengali  02:38+902:40+142m--32072.332208mECoRState Highway 10, Odisha
81JSGJharsuguda Junction (5)  03:30+1003:40+1010m--32098.778236mSERJharsuguda, Odisha
82BMBBamra (3)  04:08+1304:09+151m--32135.280259mSERBamra PH : 06642-229268, Odisha
83GPRaj Gangpur (3)X  04:35+1404:36+161m232169.853237mSERRaj Ganpur, Odisha
84ROURourkela Junction (5)X  05:10+1205:30+1220m--32199.642198mSERRourkela, Odisha
85NXNNuagaon  06:09+706:10+91m--32226.857218mSERKeonjhar, Odisha
86BANOBano  06:54+2106:55+221m--32268.974452mSERDist. Gumla, Jharkhand
87GBXGovindpur Road07:38+1607:40+172m--32322.163577mSERkhunti, Jharkhand
88HTEHatia (3)  08:20+1508:25+165m332363.928657mSER2788599, Jharkhand
89RNCRanchi Junction (6)  08:40+1608:55+1615m132370.949632mSERDiv HQ SER, Jharkhand
90MURIMuri Junction (3)X  10:08+810:10+92m132431.039257mSER06522-222444, Jharkhand
91JAAJhalida (3)O  10:29+1710:30+181m--32443.358297mSERJhalida, West Bengal
92PNWPundhag (3)  10:54+1810:55+191m132466.650291mSERDist - Puruliya -723215, West Bengal
93BKSCBokaro Steel City (3)  11:15+1411:25+1510m132483.231245mSER06542-253861, Jharkhand
94CRPChandrapura Junction (2)X  11:55+1711:58+183m--32498.832227mECR06549-242555, Jharkhand
95KTHKatrasgarh (1)  12:37+1412:39+202m--32519.223198mECRKatrasgarh, Jharkhand
96DHN•Dhanbad Junction (8)•  13:15+11-532533.0-235mECR2319801. Div. HQ ECR, Jharkhand
Scroll to Top
Scroll to Bottom